Time;durP1;ratioP1;P1;durP2;ratioP2;P2;SDS_P1;SDS_P2;PMS_P1;PMS_P2;Temp;Humidity;BMP_temperature;BMP_pressure;BME280_temperature;BME280_humidity;BME280_pressure;Samples;Min_cycle;Max_cycle;Signal;HPM_P1;HPM_P2
2021/10/10 00:01:21;;;;;;;13.63;11.43;;;;;;;2.78;85.70;100561.25;5010108;28;20224;-83
2021/10/10 00:03:48;;;;;;;15.17;12.00;;;;;;;2.76;86.04;100566.66;5044327;23;20281;-83
2021/10/10 00:06:53;;;;;;;14.87;11.67;;;;;;;2.72;85.59;100561.81;5053604;23;20210;-82
2021/10/10 00:09:25;;;;;;;13.63;10.97;;;;;;;2.74;86.28;100568.66;5065992;23;20233;-83
2021/10/10 00:11:56;;;;;;;15.03;11.67;;;;;;;2.57;86.29;100537.66;5056765;23;20270;-83
2021/10/10 00:14:28;;;;;;;14.80;11.63;;;;;;;2.67;86.22;100556.97;5040667;28;20220;-84
2021/10/10 00:17:57;;;;;;;15.30;11.53;;;;;;;2.70;85.98;100561.16;5065279;28;20204;-84
2021/10/10 00:20:51;;;;;;;15.60;11.90;;;;;;;2.73;86.44;100563.50;5078574;28;20205;-83
2021/10/10 00:23:32;;;;;;;18.97;12.63;;;;;;;2.63;86.55;100551.16;5116856;23;20227;-81
2021/10/10 00:26:03;;;;;;;16.50;13.17;;;;;;;2.71;86.17;100566.28;5088448;23;20224;-83
2021/10/10 00:28:44;;;;;;;16.67;13.60;;;;;;;2.57;86.26;100553.53;5147517;23;20229;-84
2021/10/10 00:31:13;;;;;;;15.73;14.03;;;;;;;2.50;86.42;100545.34;5067668;23;20249;-83
2021/10/10 00:33:48;;;;;;;19.10;13.87;;;;;;;2.57;86.38;100562.31;5169436;23;20521;-83
2021/10/10 00:36:37;;;;;;;16.50;12.73;;;;;;;2.52;86.42;100545.22;5020273;28;20237;-83
2021/10/10 00:39:07;;;;;;;14.23;12.43;;;;;;;2.53;86.41;100552.16;5050814;23;20236;-82
2021/10/10 00:41:37;;;;;;;14.87;11.67;;;;;;;2.52;86.67;100559.25;5060369;23;20278;-83
2021/10/10 00:44:11;;;;;;;13.63;11.27;;;;;;;2.46;86.54;100544.00;5047878;23;20212;-83
2021/10/10 00:46:55;;;;;;;13.97;11.23;;;;;;;2.39;86.72;100545.53;5056918;28;20197;-84
2021/10/10 00:49:22;;;;;;;14.40;10.90;;;;;;;2.41;86.13;100535.66;5042226;28;20206;-83
2021/10/10 00:52:15;;;;;;;12.70;10.47;;;;;;;2.35;86.29;100538.03;5042577;28;20236;-83
2021/10/10 00:55:08;;;;;;;13.33;10.97;;;;;;;2.33;85.97;100542.66;5055075;23;20221;-83
2021/10/10 00:57:41;;;;;;;14.10;11.17;;;;;;;2.25;86.49;100532.78;5071783;23;20220;-83
2021/10/10 01:00:21;;;;;;;13.37;11.03;;;;;;;2.29;86.18;100534.16;5035788;23;20589;-83
2021/10/10 01:03:14;;;;;;;13.50;11.87;;;;;;;2.19;86.31;100514.88;5034028;28;20279;-83
2021/10/10 01:05:53;;;;;;;13.87;11.57;;;;;;;2.26;86.53;100531.81;5159182;23;20252;-84
2021/10/10 01:08:33;;;;;;;15.43;11.87;;;;;;;2.24;86.59;100527.66;5042415;23;20230;-83
2021/10/10 01:11:05;;;;;;;14.13;11.80;;;;;;;2.18;86.84;100516.66;5063730;23;20288;-83
2021/10/10 01:13:44;;;;;;;14.00;11.10;;;;;;;2.19;86.81;100522.78;5048616;23;20198;-83
2021/10/10 01:16:51;;;;;;;14.77;11.60;;;;;;;2.17;86.66;100527.38;5150454;23;20295;-83
2021/10/10 01:19:40;;;;;;;17.77;11.73;;;;;;;2.06;86.83;100509.88;5014969;23;20220;-84
2021/10/10 01:22:24;;;;;;;13.73;11.07;;;;;;;2.03;87.01;100510.16;5048824;23;20261;-83
2021/10/10 01:24:58;;;;;;;13.80;11.43;;;;;;;1.97;86.20;100492.22;5032827;23;20297;-83
2021/10/10 01:27:25;;;;;;;13.73;10.70;;;;;;;2.04;86.31;100518.94;5087193;23;20206;-83
2021/10/10 01:30:15;;;;;;;13.47;11.13;;;;;;;1.99;86.43;100524.66;5065600;23;20229;-83
2021/10/10 01:32:56;;;;;;;14.27;11.80;;;;;;;1.97;86.47;100528.41;5013634;23;20237;-83
2021/10/10 01:35:46;;;;;;;16.47;11.13;;;;;;;1.86;86.49;100500.34;5047066;23;20217;-83
2021/10/10 01:38:31;;;;;;;13.33;11.57;;;;;;;1.94;87.03;100520.75;5156972;23;20225;-83
2021/10/10 01:41:19;;;;;;;16.40;11.13;;;;;;;1.91;86.65;100513.13;4976933;28;20225;-83
2021/10/10 01:43:46;;;;;;;14.30;11.40;;;;;;;1.89;86.92;100505.34;5102209;23;20248;-83
2021/10/10 01:46:28;;;;;;;15.37;11.53;;;;;;;2.00;87.44;100510.47;5061723;28;20678;-83
2021/10/10 01:48:59;;;;;;;15.70;11.63;;;;;;;2.04;87.16;100508.38;5070016;23;20237;-83
2021/10/10 01:51:46;;;;;;;14.33;11.67;;;;;;;1.98;86.86;100503.66;5054913;23;20226;-83
2021/10/10 01:54:20;;;;;;;15.60;12.00;;;;;;;1.92;86.74;100491.81;5064667;23;20230;-83
2021/10/10 01:56:52;;;;;;;13.77;11.33;;;;;;;1.99;86.92;100500.88;5057629;28;20159;-83
2021/10/10 01:59:41;;;;;;;15.24;12.52;;;;;;;1.96;86.89;100487.91;4940095;23;3667678;-83
2021/10/10 02:02:27;;;;;;;15.13;11.57;;;;;;;2.03;86.97;100494.31;5027146;23;20677;-83
2021/10/10 02:05:09;;;;;;;17.30;11.73;;;;;;;2.05;87.28;100507.41;5015107;23;20206;-83
2021/10/10 02:07:55;;;;;;;16.70;12.03;;;;;;;2.04;86.97;100500.44;5035445;23;20223;-83
2021/10/10 02:10:29;;;;;;;16.53;11.90;;;;;;;1.95;87.56;100480.16;5037229;28;20241;-83
2021/10/10 02:12:58;;;;;;;14.97;11.57;;;;;;;1.98;87.36;100493.06;5029034;23;20248;-83
2021/10/10 02:16:15;;;;;;;15.77;11.70;;;;;;;1.94;87.57;100494.34;5056955;28;20170;-83
2021/10/10 02:18:56;;;;;;;14.17;11.40;;;;;;;1.95;87.13;100496.00;5014492;28;20226;-83
2021/10/10 02:21:23;;;;;;;16.83;12.33;;;;;;;1.91;87.69;100489.34;5016004;28;20219;-83
2021/10/10 02:23:53;;;;;;;13.93;11.23;;;;;;;1.92;87.63;100496.28;5050291;22;20223;-83
2021/10/10 02:26:53;;;;;;;14.57;11.67;;;;;;;1.89;87.09;100504.50;5060350;23;20241;-83
2021/10/10 02:29:26;;;;;;;12.97;10.40;;;;;;;1.82;87.19;100490.22;5072204;23;20226;-82
2021/10/10 02:32:13;;;;;;;14.90;11.80;;;;;;;1.81;87.54;100497.28;5035116;28;20230;-83
2021/10/10 02:34:44;;;;;;;16.50;11.87;;;;;;;1.84;87.66;100512.03;5066310;23;20261;-83
2021/10/10 02:37:26;;;;;;;16.00;11.73;;;;;;;1.86;87.78;100515.38;5041915;23;20223;-83
2021/10/10 02:39:56;;;;;;;14.83;12.00;;;;;;;1.87;87.99;100517.03;5047979;23;20301;-83
2021/10/10 02:42:27;;;;;;;16.77;12.00;;;;;;;1.75;87.82;100493.41;5045619;23;20223;-83
2021/10/10 02:44:56;;;;;;;16.53;12.07;;;;;;;1.80;88.04;100498.25;5031082;28;20210;-83
2021/10/10 02:47:23;;;;;;;14.77;12.37;;;;;;;1.87;88.10;100502.00;5022407;23;20246;-82
2021/10/10 02:49:50;;;;;;;17.20;12.40;;;;;;;1.85;88.17;100508.41;4999956;28;20250;-83
2021/10/10 02:52:21;;;;;;;14.40;11.20;;;;;;;1.83;87.62;100503.25;5046717;23;20245;-82
2021/10/10 02:54:51;;;;;;;15.10;11.80;;;;;;;1.79;87.90;100493.94;5016955;28;20484;-81
2021/10/10 02:57:23;;;;;;;16.33;11.37;;;;;;;1.77;87.45;100488.00;5041881;23;20211;-83
2021/10/10 02:59:52;;;;;;;15.20;12.37;;;;;;;1.81;87.30;100486.72;5124275;23;20198;-83
2021/10/10 03:02:20;;;;;;;15.43;11.87;;;;;;;1.71;87.58;100489.38;5037075;23;20209;-82
2021/10/10 03:04:48;;;;;;;14.90;11.57;;;;;;;1.70;87.07;100493.00;5058696;28;20236;-83
2021/10/10 03:07:17;;;;;;;16.77;11.63;;;;;;;1.70;87.55;100489.53;5082268;23;20238;-81
2021/10/10 03:09:44;;;;;;;15.13;11.70;;;;;;;1.69;87.40;100485.22;5030641;23;20198;-83
2021/10/10 03:12:25;;;;;;;16.23;11.60;;;;;;;1.65;87.29;100482.03;5037583;28;20278;-82
2021/10/10 03:15:12;;;;;;;16.57;11.23;;;;;;;1.64;87.73;100490.91;5065503;23;21412;-82
2021/10/10 03:17:41;;;;;;;13.47;11.57;;;;;;;1.63;87.54;100483.16;5061535;23;20200;-81
2021/10/10 03:20:14;;;;;;;14.37;11.27;;;;;;;1.51;87.77;100477.19;5065824;23;20256;-83
2021/10/10 03:22:54;;;;;;;14.17;11.13;;;;;;;1.57;87.30;100478.44;5078489;23;20237;-83
2021/10/10 03:25:47;;;;;;;13.40;11.17;;;;;;;1.46;87.72;100466.19;5070970;23;20215;-82
2021/10/10 03:28:16;;;;;;;16.13;11.33;;;;;;;1.46;87.42;100468.84;5039440;28;20193;-82
2021/10/10 03:30:47;;;;;;;15.80;12.30;;;;;;;1.52;87.10;100481.50;5059415;28;20166;-83
2021/10/10 03:33:37;;;;;;;15.80;12.03;;;;;;;1.54;87.38;100482.16;5051447;23;20236;-84
2021/10/10 03:36:34;;;;;;;15.17;11.90;;;;;;;1.52;87.58;100488.56;5017595;23;20221;-82
2021/10/10 03:39:12;;;;;;;16.87;11.87;;;;;;;1.54;87.45;100479.53;5025530;23;20222;-84
2021/10/10 03:41:53;;;;;;;17.33;12.10;;;;;;;1.51;87.75;100471.06;5024860;28;20237;-82
2021/10/10 03:44:20;;;;;;;17.57;12.43;;;;;;;1.51;87.96;100471.91;5021925;28;20166;-82
2021/10/10 03:47:15;;;;;;;17.83;12.57;;;;;;;1.63;87.85;100476.03;5059109;23;20244;-84
2021/10/10 03:50:19;;;;;;;17.47;12.27;;;;;;;1.59;88.12;100464.09;5022221;23;20225;-82
2021/10/10 03:52:46;;;;;;;16.03;12.03;;;;;;;1.60;87.59;100465.75;5021972;28;20234;-82
2021/10/10 03:58:20;;;;;;;16.33;12.87;;;;;;;1.72;88.28;100480.50;5062758;23;20228;-82
2021/10/10 04:00:58;;;;;;;15.37;11.90;;;;;;;1.76;88.46;100468.66;5161069;23;20195;-82
2021/10/10 04:03:32;;;;;;;18.23;12.77;;;;;;;1.79;88.14;100475.47;5068476;23;20292;-82
2021/10/10 04:06:08;;;;;;;14.87;12.07;;;;;;;1.76;88.15;100455.44;5056864;28;20217;-82
2021/10/10 04:08:44;;;;;;;17.63;12.50;;;;;;;1.83;88.29;100460.97;5069584;28;20217;-82
2021/10/10 04:11:11;;;;;;;16.30;12.00;;;;;;;1.91;88.13;100463.75;5075206;23;20233;-82
2021/10/10 04:13:40;;;;;;;16.37;12.23;;;;;;;1.80;88.61;100437.50;5034795;28;20224;-82
2021/10/10 04:16:09;;;;;;;15.83;12.33;;;;;;;1.96;87.88;100456.19;5058840;23;20231;-82
2021/10/10 04:18:37;;;;;;;14.83;12.93;;;;;;;2.02;88.10;100463.56;5051330;28;20221;-82
2021/10/10 04:21:04;;;;;;;17.20;12.50;;;;;;;2.10;88.23;100463.66;5050920;28;20233;-82
2021/10/10 04:23:33;;;;;;;16.87;12.20;;;;;;;2.10;88.28;100460.22;5035559;28;20292;-82
2021/10/10 04:26:00;;;;;;;16.63;12.07;;;;;;;2.03;88.09;100454.66;5040600;23;20225;-82
2021/10/10 04:28:27;;;;;;;17.67;12.30;;;;;;;2.14;88.09;100456.31;5034567;28;20232;-82
2021/10/10 04:31:03;;;;;;;28.37;12.63;;;;;;;2.29;88.47;100468.03;5063433;23;20226;-82
2021/10/10 04:33:49;;;;;;;15.03;12.27;;;;;;;2.31;88.14;100468.75;5075528;23;20221;-81
2021/10/10 04:36:34;;;;;;;15.90;11.80;;;;;;;2.33;87.99;100458.03;5070863;23;20224;-83
2021/10/10 04:39:05;;;;;;;15.43;11.90;;;;;;;2.42;88.51;100467.72;5046789;23;20262;-84
2021/10/10 04:41:38;;;;;;;15.37;12.20;;;;;;;2.38;88.48;100453.94;5098118;23;20258;-82
2021/10/10 04:44:11;;;;;;;15.73;11.80;;;;;;;2.39;87.75;100452.13;5014630;23;20258;-82
2021/10/10 04:46:47;;;;;;;15.87;12.10;;;;;;;2.49;88.18;100474.91;5050701;23;20240;-83
2021/10/10 04:49:45;;;;;;;13.37;11.90;;;;;;;2.33;87.74;100440.34;5124074;23;20221;-82
2021/10/10 04:52:27;;;;;;;14.70;12.07;;;;;;;2.46;88.11;100456.69;5029417;22;20304;-83
2021/10/10 04:54:57;;;;;;;14.50;12.03;;;;;;;2.57;88.27;100466.22;5033100;23;20239;-82
2021/10/10 04:57:24;;;;;;;14.90;11.77;;;;;;;2.58;88.47;100474.03;5009370;28;20250;-83
2021/10/10 04:59:51;;;;;;;15.73;12.00;;;;;;;2.66;87.90;100478.56;4993374;28;20216;-82
2021/10/10 05:02:38;;;;;;;13.00;11.60;;;;;;;2.62;88.18;100475.38;5011696;28;20235;-83
2021/10/10 05:05:11;;;;;;;15.90;11.63;;;;;;;2.73;88.07;100487.59;5028581;23;20247;-82
2021/10/10 05:07:38;;;;;;;17.00;12.57;;;;;;;2.54;87.93;100454.13;5068703;22;20222;-82
2021/10/10 05:10:58;;;;;;;14.03;11.93;;;;;;;2.76;87.45;100487.28;5064913;23;20293;-82
2021/10/10 05:13:37;;;;;;;13.87;11.63;;;;;;;2.73;87.72;100486.75;5031837;23;20262;-83
2021/10/10 05:16:18;;;;;;;14.67;12.50;;;;;;;2.72;87.84;100479.78;5028185;23;20239;-83
2021/10/10 05:18:51;;;;;;;14.80;12.23;;;;;;;2.73;87.98;100473.53;5114641;23;20188;-82
2021/10/10 05:21:26;;;;;;;15.20;11.73;;;;;;;2.74;87.60;100467.25;5040618;28;20193;-82
2021/10/10 05:23:58;;;;;;;14.23;12.00;;;;;;;2.86;87.89;100481.94;5040493;28;20222;-81
2021/10/10 05:26:31;;;;;;;15.47;12.53;;;;;;;2.89;87.91;100487.75;5057872;23;20214;-82
2021/10/10 05:28:58;;;;;;;18.13;12.60;;;;;;;2.89;87.81;100477.16;5056509;28;20218;-83
2021/10/10 05:31:29;;;;;;;15.63;11.97;;;;;;;3.05;87.78;100489.75;5063624;23;20216;-83
2021/10/10 05:34:02;;;;;;;15.77;12.60;;;;;;;3.16;87.82;100486.03;5059845;28;20172;-83
2021/10/10 05:36:35;;;;;;;16.03;12.07;;;;;;;3.16;87.54;100473.63;5075539;28;20200;-82
2021/10/10 05:39:22;;;;;;;15.57;12.23;;;;;;;3.33;86.76;100485.19;5045102;28;20190;-82
2021/10/10 05:42:12;;;;;;;17.07;12.00;;;;;;;3.42;87.02;100477.16;5050987;28;20196;-82
2021/10/10 05:44:59;;;;;;;13.83;11.50;;;;;;;3.54;86.91;100475.97;5061200;28;20585;-83
2021/10/10 05:47:47;;;;;;;14.00;11.63;;;;;;;3.64;86.21;100477.69;5074724;28;20283;-82
2021/10/10 05:50:25;;;;;;;15.30;11.47;;;;;;;3.72;85.96;100480.38;5075045;28;20245;-82
2021/10/10 05:53:06;;;;;;;14.30;11.70;;;;;;;3.89;85.94;100483.00;5043223;28;20312;-82
2021/10/10 05:55:39;;;;;;;14.87;12.07;;;;;;;3.97;85.74;100487.50;5076083;28;20204;-82
2021/10/10 05:58:20;;;;;;;15.30;12.93;;;;;;;4.07;85.73;100485.56;5075943;28;20209;-83
2021/10/10 06:00:49;;;;;;;14.07;11.73;;;;;;;4.17;85.27;100481.00;5074710;28;20209;-83
2021/10/10 06:03:16;;;;;;;16.13;12.33;;;;;;;4.23;84.97;100476.88;5074892;28;20251;-82
2021/10/10 06:06:04;;;;;;;13.90;11.80;;;;;;;4.24;84.15;100476.75;5056414;28;20225;-82
2021/10/10 06:08:33;;;;;;;13.03;11.57;;;;;;;4.37;84.44;100495.69;5072144;28;20269;-84
2021/10/10 06:11:20;;;;;;;13.80;11.43;;;;;;;4.48;84.42;100497.22;5073468;28;20267;-83
2021/10/10 06:13:59;;;;;;;13.80;11.73;;;;;;;4.67;84.55;100501.44;5073776;28;20218;-83
2021/10/10 06:16:33;;;;;;;17.30;12.27;;;;;;;4.81;83.99;100501.66;5059330;28;20201;-83
2021/10/10 06:19:30;;;;;;;18.50;15.37;;;;;;;5.05;83.82;100498.22;5059590;28;20235;-82
2021/10/10 06:22:28;;;;;;;14.83;12.30;;;;;;;5.39;82.80;100502.59;5069249;23;20228;-82
2021/10/10 06:25:01;;;;;;;15.73;12.23;;;;;;;5.91;82.13;100505.78;5058478;28;20176;-83
2021/10/10 06:27:30;;;;;;;15.30;12.00;;;;;;;6.44;80.08;100513.97;5039412;28;20291;-83
2021/10/10 06:30:05;;;;;;;13.33;11.27;;;;;;;6.96;78.52;100516.06;5040459;28;20287;-83
2021/10/10 06:32:35;;;;;;;13.77;11.27;;;;;;;7.12;77.57;100512.50;5051128;28;20248;-83
2021/10/10 06:35:03;;;;;;;14.13;12.60;;;;;;;7.11;75.69;100508.16;5048858;28;20248;-84
2021/10/10 06:37:51;;;;;;;14.50;12.13;;;;;;;7.13;75.27;100514.16;5064760;28;20225;-83
2021/10/10 06:40:54;;;;;;;13.57;12.17;;;;;;;7.04;72.58;100505.38;5077998;28;20165;-83
2021/10/10 06:43:32;;;;;;;14.87;12.40;;;;;;;7.06;73.07;100509.53;5056017;28;20183;-83
2021/10/10 06:46:19;;;;;;;15.10;11.53;;;;;;;6.99;72.35;100497.09;5075516;28;20226;-81
2021/10/10 06:49:03;;;;;;;14.77;12.10;;;;;;;7.00;73.22;100499.56;5064880;28;20154;-81
2021/10/10 06:51:59;;;;;;;14.80;12.23;;;;;;;6.96;73.32;100500.09;5063865;28;20210;-80
2021/10/10 06:54:29;;;;;;;15.20;11.87;;;;;;;6.93;73.30;100498.63;5070361;23;20229;-81
2021/10/10 06:57:01;;;;;;;19.00;13.90;;;;;;;7.14;72.81;100505.16;5019970;28;21033;-81
2021/10/10 06:59:40;;;;;;;19.73;14.57;;;;;;;7.12;72.45;100504.50;5033696;28;20190;-81
2021/10/10 07:02:33;;;;;;;15.57;13.17;;;;;;;7.13;70.88;100516.81;5035747;28;20218;-81
2021/10/10 07:05:14;;;;;;;18.83;13.47;;;;;;;7.29;72.33;100514.03;5043512;23;20239;-81
2021/10/10 07:08:01;;;;;;;20.20;15.13;;;;;;;7.41;71.86;100523.31;5041954;23;20198;-81
2021/10/10 07:10:57;;;;;;;16.53;13.73;;;;;;;7.61;71.57;100502.28;5067440;23;20237;-81
2021/10/10 07:13:43;;;;;;;15.53;13.27;;;;;;;7.74;70.99;100483.88;5050303;23;20241;-81
2021/10/10 07:16:35;;;;;;;14.97;12.07;;;;;;;8.00;67.89;100502.97;5044194;23;20218;-82
2021/10/10 07:19:42;;;;;;;16.37;12.93;;;;;;;8.31;68.40;100497.47;4968884;28;20216;-80
2021/10/10 07:22:32;;;;;;;20.97;15.30;;;;;;;8.45;66.23;100502.00;4987485;28;20208;-80
2021/10/10 07:25:11;;;;;;;30.83;26.03;;;;;;;8.83;65.03;100506.19;4994353;23;20219;-82
2021/10/10 07:27:58;;;;;;;31.00;25.63;;;;;;;9.00;64.03;100516.69;5034146;23;20225;-80
2021/10/10 07:30:54;;;;;;;64.87;51.50;;;;;;;9.19;63.78;100508.06;5050012;23;20237;-81
2021/10/10 07:33:51;;;;;;;18.30;13.00;;;;;;;9.22;61.12;100515.69;5021703;28;20234;-82
2021/10/10 07:36:26;;;;;;;15.70;12.40;;;;;;;9.22;63.08;100519.22;5118385;23;20309;-83
2021/10/10 07:39:03;;;;;;;14.67;11.20;;;;;;;9.45;63.21;100515.53;5026662;23;20245;-83
2021/10/10 07:41:36;;;;;;;12.93;11.47;;;;;;;9.55;63.46;100508.84;5034669;28;20230;-81
2021/10/10 07:44:40;;;;;;;12.93;11.53;;;;;;;9.63;63.65;100516.72;5039575;28;20174;-83
2021/10/10 07:50:36;;;;;;;18.97;13.97;;;;;;;9.48;62.91;100515.13;5042117;23;20203;-83
2021/10/10 07:53:39;;;;;;;15.53;13.17;;;;;;;9.52;63.58;100513.72;5050276;23;20203;-83
2021/10/10 07:56:21;;;;;;;16.27;12.70;;;;;;;9.41;62.78;100511.56;5053490;28;20202;-83
2021/10/10 07:58:52;;;;;;;17.10;12.40;;;;;;;9.72;63.45;100507.56;5066885;23;20230;-80
2021/10/10 08:01:31;;;;;;;12.80;11.40;;;;;;;9.85;63.24;100495.28;5002242;23;20287;31
2021/10/10 08:04:01;;;;;;;14.53;12.57;;;;;;;9.87;62.06;100498.63;5004871;23;20288;-81
2021/10/10 08:06:43;;;;;;;19.80;12.83;;;;;;;10.02;62.98;100508.22;4959711;28;20208;-81
2021/10/10 08:09:37;;;;;;;19.57;14.53;;;;;;;9.99;62.90;100502.41;5030114;23;20243;31
2021/10/10 08:12:08;;;;;;;14.90;11.83;;;;;;;9.59;62.53;100503.94;4974754;28;20310;-81
2021/10/10 08:14:36;;;;;;;17.67;12.77;;;;;;;9.52;61.92;100508.38;5013644;23;20243;-80
2021/10/10 08:17:12;;;;;;;15.10;12.43;;;;;;;9.41;62.08;100496.38;5012083;28;20211;-80
2021/10/10 08:19:42;;;;;;;15.83;11.93;;;;;;;9.60;62.28;100487.69;5022840;23;20250;-79
2021/10/10 08:22:19;;;;;;;15.83;12.47;;;;;;;9.93;61.03;100512.06;5050486;23;20223;-81
2021/10/10 08:24:55;;;;;;;16.73;12.10;;;;;;;9.62;61.34;100496.34;5017298;28;20159;-80
2021/10/10 08:27:47;;;;;;;14.37;12.30;;;;;;;9.66;60.89;100510.97;5051736;28;20186;-81
2021/10/10 08:30:21;;;;;;;19.33;12.67;;;;;;;9.65;61.43;100498.66;5038583;23;20226;-81
2021/10/10 08:32:53;;;;;;;13.47;12.07;;;;;;;9.68;61.28;100500.09;5042562;23;20226;-82
2021/10/10 08:35:25;;;;;;;15.97;12.47;;;;;;;9.84;61.48;100507.03;5018172;28;20722;-81
2021/10/10 08:38:00;;;;;;;15.67;12.60;;;;;;;10.14;60.11;100509.31;5056885;23;20257;-80
2021/10/10 08:40:44;;;;;;;16.03;11.97;;;;;;;10.31;60.69;100520.56;5061288;23;20223;-79
2021/10/10 08:43:15;;;;;;;14.57;12.30;;;;;;;10.21;61.11;100508.59;4992912;28;20262;-81
2021/10/10 08:45:47;;;;;;;13.50;11.87;;;;;;;9.92;61.72;100512.25;4960957;28;20634;-80
2021/10/10 08:48:17;;;;;;;19.07;13.70;;;;;;;10.13;61.86;100501.47;4971402;28;20250;-80
2021/10/10 08:50:45;;;;;;;14.80;12.10;;;;;;;10.05;61.59;100491.75;4954478;28;20231;-81
2021/10/10 08:53:12;;;;;;;16.03;12.53;;;;;;;10.24;61.33;100506.31;4969570;28;20252;-80
2021/10/10 08:55:42;;;;;;;16.97;12.50;;;;;;;10.23;60.90;100496.63;4953983;28;20232;-81
2021/10/10 08:58:09;;;;;;;17.63;12.30;;;;;;;9.98;61.72;100493.56;4958897;28;20224;-81
2021/10/10 09:00:47;;;;;;;14.70;12.87;;;;;;;9.59;63.61;100512.78;4974045;28;20308;-78
2021/10/10 09:03:16;;;;;;;16.00;12.83;;;;;;;9.46;63.63;100503.81;4984909;28;20277;-79
2021/10/10 09:05:54;;;;;;;17.83;12.37;;;;;;;9.35;63.25;100504.31;5000382;28;20212;-79
2021/10/10 09:08:24;;;;;;;17.33;12.70;;;;;;;9.45;63.90;100510.19;4971455;28;20247;-79
2021/10/10 09:11:05;;;;;;;17.90;13.60;;;;;;;9.61;62.55;100513.41;4994788;28;20240;-79
2021/10/10 09:13:36;;;;;;;15.77;13.23;;;;;;;9.83;61.28;100492.00;5010130;28;20223;-79
2021/10/10 09:16:14;;;;;;;15.90;12.47;;;;;;;10.14;60.32;100497.78;4994390;28;20266;-79
2021/10/10 09:18:45;;;;;;;17.07;14.07;;;;;;;10.43;59.72;100496.75;4993306;28;20197;-79
2021/10/10 09:21:17;;;;;;;17.53;12.97;;;;;;;10.81;58.13;100498.00;5009845;28;20238;-79
2021/10/10 09:23:50;;;;;;;18.33;12.50;;;;;;;11.19;56.32;100495.66;5020528;23;20439;-79
2021/10/10 09:26:50;;;;;;;18.57;12.90;;;;;;;11.79;55.44;100483.16;4992050;23;20227;-79
2021/10/10 09:29:38;;;;;;;15.23;12.37;;;;;;;12.17;54.17;100476.09;4988680;23;20290;-79
2021/10/10 09:32:31;;;;;;;16.73;12.87;;;;;;;12.21;52.51;100485.38;5026876;28;20215;-79
2021/10/10 09:35:00;;;;;;;67.27;42.00;;;;;;;12.41;52.23;100487.22;5002663;28;20258;-79
2021/10/10 09:37:45;;;;;;;39.17;26.97;;;;;;;12.78;51.88;100491.84;5009807;28;20231;-80
2021/10/10 09:40:34;;;;;;;21.97;17.30;;;;;;;13.32;50.18;100487.88;5010145;28;20294;-79
2021/10/10 09:43:05;;;;;;;17.60;13.23;;;;;;;13.29;49.05;100482.94;5012129;28;20225;-79
2021/10/10 09:46:31;;;;;;;15.57;12.27;;;;;;;13.57;48.10;100480.66;4971626;29;20292;-80
2021/10/10 09:49:25;;;;;;;17.30;12.43;;;;;;;13.73;48.00;100484.66;4972094;29;20244;-80
2021/10/10 09:51:57;;;;;;;17.40;12.30;;;;;;;13.71;48.41;100476.00;4970871;28;20185;-80
2021/10/10 09:54:46;;;;;;;18.00;12.27;;;;;;;14.02;47.21;100478.63;4953528;29;20247;-80
2021/10/10 09:57:16;;;;;;;16.57;12.50;;;;;;;14.17;46.70;100468.31;4973008;29;20221;-80
2021/10/10 09:59:56;;;;;;;17.77;12.37;;;;;;;13.99;45.54;100468.31;4966557;29;20236;-80
2021/10/10 10:02:41;;;;;;;16.83;13.27;;;;;;;14.22;45.24;100478.44;4953012;29;20289;-80
2021/10/10 10:05:27;;;;;;;17.53;12.30;;;;;;;14.09;45.96;100461.34;4968004;28;20303;-80
2021/10/10 10:07:55;;;;;;;13.97;11.63;;;;;;;13.83;45.96;100472.38;4963588;28;20236;-80
2021/10/10 10:10:27;;;;;;;12.83;11.23;;;;;;;13.89;45.41;100471.50;4965519;29;20263;-80
2021/10/10 10:12:57;;;;;;;17.67;12.17;;;;;;;13.78;44.18;100469.50;4931740;29;20194;-80
2021/10/10 10:15:28;;;;;;;16.03;11.77;;;;;;;14.30;44.17;100484.34;4965260;29;20197;-80
2021/10/10 10:18:01;;;;;;;13.27;11.30;;;;;;;14.01;43.73;100485.88;4967331;28;20232;-80
2021/10/10 10:20:29;;;;;;;14.20;12.20;;;;;;;14.36;43.51;100486.19;4967679;29;20496;-80
2021/10/10 10:22:57;;;;;;;13.27;11.17;;;;;;;14.54;43.67;100474.59;4949698;29;20225;-80
2021/10/10 10:25:26;;;;;;;14.80;11.37;;;;;;;14.73;43.51;100467.31;4949277;29;20234;-80
2021/10/10 10:27:53;;;;;;;19.77;11.67;;;;;;;15.02;42.09;100480.03;4948528;29;20239;-80
2021/10/10 10:30:26;;;;;;;14.60;11.53;;;;;;;14.99;42.63;100467.78;4965667;28;20235;-80
2021/10/10 10:32:55;;;;;;;15.47;11.53;;;;;;;15.12;42.37;100474.88;4950066;29;20300;-81
2021/10/10 10:35:23;;;;;;;14.53;11.77;;;;;;;15.20;41.43;100479.97;4962740;29;20228;-79
2021/10/10 10:37:54;;;;;;;17.03;11.90;;;;;;;15.08;42.58;100479.09;4949418;29;20240;-79
2021/10/10 10:40:30;;;;;;;18.37;11.57;;;;;;;15.29;42.01;100477.78;4964653;29;20283;-79
2021/10/10 10:43:00;;;;;;;16.83;12.27;;;;;;;15.56;41.75;100483.63;4949275;29;20228;-80
2021/10/10 10:45:41;;;;;;;17.40;11.63;;;;;;;15.76;40.75;100470.63;4960580;28;20627;-79
2021/10/10 10:48:44;;;;;;;15.50;10.93;;;;;;;15.81;40.84;100474.28;4964097;29;20229;-81
2021/10/10 10:51:40;;;;;;;15.17;12.03;;;;;;;15.68;40.67;100468.25;4931979;29;20233;-81
2021/10/10 10:54:37;;;;;;;16.07;12.27;;;;;;;15.44;40.40;100459.28;4963026;29;20629;-81
2021/10/10 10:57:27;;;;;;;14.30;11.67;;;;;;;15.35;41.37;100456.06;4933326;29;20248;-81
2021/10/10 11:00:16;;;;;;;17.10;11.93;;;;;;;15.28;41.44;100468.03;4964916;29;20223;-81
2021/10/10 11:02:54;;;;;;;19.00;12.73;;;;;;;15.05;41.94;100468.75;4950895;29;20236;-80
2021/10/10 11:05:34;;;;;;;13.80;11.83;;;;;;;15.01;42.92;100462.19;4964107;28;20308;-81
2021/10/10 11:08:18;;;;;;;15.97;12.47;;;;;;;14.42;42.84;100462.88;4966054;29;20228;-80
2021/10/10 11:11:23;;;;;;;15.67;11.57;;;;;;;14.44;42.94;100460.81;4951270;29;20236;-81
2021/10/10 11:13:55;;;;;;;16.37;11.77;;;;;;;13.95;44.13;100462.50;4941688;29;20235;-81
2021/10/10 11:16:28;;;;;;;14.13;11.47;;;;;;;13.88;44.70;100469.00;4959849;29;20233;-81
2021/10/10 11:19:02;;;;;;;16.10;11.90;;;;;;;13.57;45.57;100454.56;4965042;29;20226;-80
2021/10/10 11:21:36;;;;;;;16.17;12.33;;;;;;;13.14;45.95;100442.84;4963693;29;20700;-80
2021/10/10 11:24:12;;;;;;;14.67;11.97;;;;;;;13.25;46.22;100446.72;4947063;29;20232;-81
2021/10/10 11:26:42;;;;;;;15.47;11.73;;;;;;;13.17;46.68;100437.03;4950884;29;20200;-80
2021/10/10 11:29:18;;;;;;;15.13;11.33;;;;;;;13.35;45.25;100441.66;4966275;29;20233;-81
2021/10/10 11:31:47;;;;;;;17.47;11.77;;;;;;;13.54;44.69;100436.13;4963234;29;20240;-80
2021/10/10 11:34:25;;;;;;;15.63;10.67;;;;;;;13.81;44.18;100434.03;4947601;28;20220;-81
2021/10/10 11:36:56;;;;;;;14.90;10.90;;;;;;;13.97;43.74;100430.78;4964062;29;20237;-80
2021/10/10 11:39:27;;;;;;;16.00;11.30;;;;;;;14.02;42.54;100404.00;4963940;29;20236;-81
2021/10/10 11:41:56;;;;;;;18.27;12.63;;;;;;;14.19;43.62;100430.34;4947878;29;20237;-80
2021/10/10 11:44:36;;;;;;;17.90;12.30;;;;;;;13.68;45.15;100423.38;4944882;29;20311;-81
2021/10/10 11:47:06;;;;;;;13.63;11.63;;;;;;;13.88;44.75;100412.44;4962122;29;20232;-80
2021/10/10 11:49:37;;;;;;;17.27;12.60;;;;;;;14.04;45.17;100411.88;4963683;29;20208;-80
2021/10/10 11:52:35;;;;;;;18.27;12.30;;;;;;;14.27;44.52;100424.69;4963555;29;20233;-80
2021/10/10 11:55:27;;;;;;;18.13;12.30;;;;;;;14.16;43.94;100420.84;4949965;29;20279;-80
2021/10/10 11:58:03;;;;;;;18.27;12.10;;;;;;;14.20;44.62;100421.22;4946713;29;20260;-81
2021/10/10 12:00:33;;;;;;;15.50;12.37;;;;;;;14.54;43.93;100415.28;4964820;28;20228;-81
2021/10/10 12:03:15;;;;;;;17.40;11.80;;;;;;;14.26;44.43;100413.09;4947140;29;20637;-80
2021/10/10 12:05:45;;;;;;;16.97;11.90;;;;;;;14.18;44.50;100416.09;4947218;29;20229;-80
2021/10/10 12:08:22;;;;;;;16.13;12.40;;;;;;;14.31;44.85;100409.72;4929571;29;20241;-81
2021/10/10 12:10:51;;;;;;;16.00;12.20;;;;;;;14.35;44.19;100400.94;4961745;28;20553;-81
2021/10/10 12:13:19;;;;;;;16.23;12.50;;;;;;;14.50;44.30;100414.09;4947231;29;20301;-81